sensor_id;sensor_type;location;lat;lon;timestamp;P1;durP1;ratioP1;P2;durP2;ratioP2
22955;SDS011;40888;48.148;11.526;2023-04-08T00:01:08;10.47;;;9.40;;
22955;SDS011;40888;48.148;11.526;2023-04-08T00:03:34;10.97;;;9.77;;
22955;SDS011;40888;48.148;11.526;2023-04-08T00:06:00;11.03;;;9.97;;
22955;SDS011;40888;48.148;11.526;2023-04-08T00:08:27;11.10;;;10.00;;
22955;SDS011;40888;48.148;11.526;2023-04-08T00:10:53;12.30;;;9.57;;
22955;SDS011;40888;48.148;11.526;2023-04-08T00:13:19;11.53;;;9.57;;
22955;SDS011;40888;48.148;11.526;2023-04-08T00:15:44;11.43;;;9.13;;
22955;SDS011;40888;48.148;11.526;2023-04-08T00:18:10;10.83;;;9.80;;
22955;SDS011;40888;48.148;11.526;2023-04-08T00:20:37;9.50;;;8.60;;
22955;SDS011;40888;48.148;11.526;2023-04-08T00:23:03;10.53;;;9.13;;
22955;SDS011;40888;48.148;11.526;2023-04-08T00:25:29;9.60;;;8.50;;
22955;SDS011;40888;48.148;11.526;2023-04-08T00:27:55;11.07;;;9.60;;
22955;SDS011;40888;48.148;11.526;2023-04-08T00:30:21;10.77;;;9.67;;
22955;SDS011;40888;48.148;11.526;2023-04-08T00:32:46;10.00;;;9.10;;
22955;SDS011;40888;48.148;11.526;2023-04-08T00:35:12;9.70;;;8.70;;
22955;SDS011;40888;48.148;11.526;2023-04-08T00:37:38;9.83;;;8.83;;
22955;SDS011;40888;48.148;11.526;2023-04-08T00:40:05;9.87;;;8.93;;
22955;SDS011;40888;48.148;11.526;2023-04-08T00:42:31;10.57;;;9.10;;
22955;SDS011;40888;48.148;11.526;2023-04-08T00:44:56;9.63;;;8.60;;
22955;SDS011;40888;48.148;11.526;2023-04-08T00:47:22;9.13;;;8.13;;
22955;SDS011;40888;48.148;11.526;2023-04-08T00:49:48;9.57;;;8.57;;
22955;SDS011;40888;48.148;11.526;2023-04-08T00:52:14;10.70;;;8.90;;
22955;SDS011;40888;48.148;11.526;2023-04-08T00:54:41;9.27;;;8.47;;
22955;SDS011;40888;48.148;11.526;2023-04-08T00:57:06;9.00;;;8.10;;
22955;SDS011;40888;48.148;11.526;2023-04-08T00:59:32;9.77;;;8.83;;
22955;SDS011;40888;48.148;11.526;2023-04-08T01:04:52;9.37;;;8.47;;
22955;SDS011;40888;48.148;11.526;2023-04-08T01:07:27;8.63;;;7.70;;
22955;SDS011;40888;48.148;11.526;2023-04-08T01:10:01;8.90;;;8.00;;
22955;SDS011;40888;48.148;11.526;2023-04-08T01:12:47;10.27;;;8.77;;
22955;SDS011;40888;48.148;11.526;2023-04-08T01:15:19;9.33;;;8.30;;
22955;SDS011;40888;48.148;11.526;2023-04-08T01:17:46;9.00;;;8.10;;
22955;SDS011;40888;48.148;11.526;2023-04-08T01:20:14;8.73;;;7.93;;
22955;SDS011;40888;48.148;11.526;2023-04-08T01:22:48;9.83;;;8.73;;
22955;SDS011;40888;48.148;11.526;2023-04-08T01:25:35;9.13;;;8.23;;
22955;SDS011;40888;48.148;11.526;2023-04-08T01:28:03;8.90;;;8.10;;
22955;SDS011;40888;48.148;11.526;2023-04-08T01:30:31;9.40;;;8.50;;
22955;SDS011;40888;48.148;11.526;2023-04-08T01:32:58;11.27;;;8.90;;
22955;SDS011;40888;48.148;11.526;2023-04-08T01:35:26;9.93;;;8.97;;
22955;SDS011;40888;48.148;11.526;2023-04-08T01:37:52;10.60;;;9.60;;
22955;SDS011;40888;48.148;11.526;2023-04-08T01:40:19;12.10;;;9.83;;
22955;SDS011;40888;48.148;11.526;2023-04-08T01:42:48;10.10;;;9.10;;
22955;SDS011;40888;48.148;11.526;2023-04-08T01:45:17;11.97;;;9.33;;
22955;SDS011;40888;48.148;11.526;2023-04-08T01:47:44;9.90;;;8.93;;
22955;SDS011;40888;48.148;11.526;2023-04-08T01:50:12;9.97;;;8.97;;
22955;SDS011;40888;48.148;11.526;2023-04-08T01:52:39;10.40;;;9.40;;
22955;SDS011;40888;48.148;11.526;2023-04-08T01:55:08;9.77;;;8.77;;
22955;SDS011;40888;48.148;11.526;2023-04-08T01:57:35;10.13;;;9.13;;
22955;SDS011;40888;48.148;11.526;2023-04-08T02:00:06;11.40;;;10.30;;
22955;SDS011;40888;48.148;11.526;2023-04-08T02:02:35;10.53;;;9.37;;
22955;SDS011;40888;48.148;11.526;2023-04-08T02:05:02;11.33;;;9.60;;
22955;SDS011;40888;48.148;11.526;2023-04-08T02:07:28;10.43;;;9.47;;
22955;SDS011;40888;48.148;11.526;2023-04-08T02:09:54;10.27;;;9.37;;
22955;SDS011;40888;48.148;11.526;2023-04-08T02:12:20;11.47;;;9.63;;
22955;SDS011;40888;48.148;11.526;2023-04-08T02:14:47;11.00;;;9.87;;
22955;SDS011;40888;48.148;11.526;2023-04-08T02:17:18;11.73;;;10.53;;
22955;SDS011;40888;48.148;11.526;2023-04-08T02:19:59;11.30;;;10.20;;
22955;SDS011;40888;48.148;11.526;2023-04-08T02:22:52;11.57;;;10.47;;
22955;SDS011;40888;48.148;11.526;2023-04-08T02:25:22;12.07;;;10.43;;
22955;SDS011;40888;48.148;11.526;2023-04-08T02:27:51;10.87;;;9.77;;
22955;SDS011;40888;48.148;11.526;2023-04-08T02:30:17;11.03;;;9.93;;
22955;SDS011;40888;48.148;11.526;2023-04-08T02:32:44;11.63;;;10.37;;
22955;SDS011;40888;48.148;11.526;2023-04-08T02:35:12;10.33;;;9.33;;
22955;SDS011;40888;48.148;11.526;2023-04-08T02:37:39;12.17;;;10.20;;
22955;SDS011;40888;48.148;11.526;2023-04-08T02:42:54;11.43;;;10.40;;
22955;SDS011;40888;48.148;11.526;2023-04-08T02:45:20;11.30;;;10.30;;
22955;SDS011;40888;48.148;11.526;2023-04-08T02:47:47;12.23;;;10.10;;
22955;SDS011;40888;48.148;11.526;2023-04-08T02:50:13;13.13;;;11.73;;
22955;SDS011;40888;48.148;11.526;2023-04-08T02:52:38;13.27;;;11.97;;
22955;SDS011;40888;48.148;11.526;2023-04-08T02:55:05;13.17;;;11.97;;
22955;SDS011;40888;48.148;11.526;2023-04-08T02:57:34;12.27;;;11.07;;
22955;SDS011;40888;48.148;11.526;2023-04-08T03:00:01;16.30;;;11.70;;
22955;SDS011;40888;48.148;11.526;2023-04-08T03:02:28;12.50;;;11.37;;
22955;SDS011;40888;48.148;11.526;2023-04-08T03:04:54;13.27;;;11.97;;
22955;SDS011;40888;48.148;11.526;2023-04-08T03:07:19;13.40;;;12.20;;
22955;SDS011;40888;48.148;11.526;2023-04-08T03:09:45;14.47;;;12.53;;
22955;SDS011;40888;48.148;11.526;2023-04-08T03:12:11;15.20;;;12.80;;
22955;SDS011;40888;48.148;11.526;2023-04-08T03:14:36;14.50;;;13.20;;
22955;SDS011;40888;48.148;11.526;2023-04-08T03:17:02;15.17;;;13.23;;
22955;SDS011;40888;48.148;11.526;2023-04-08T03:19:28;15.23;;;13.67;;
22955;SDS011;40888;48.148;11.526;2023-04-08T03:21:54;13.83;;;12.53;;
22955;SDS011;40888;48.148;11.526;2023-04-08T03:24:19;14.43;;;12.93;;
22955;SDS011;40888;48.148;11.526;2023-04-08T03:26:45;13.60;;;12.30;;
22955;SDS011;40888;48.148;11.526;2023-04-08T03:29:11;13.20;;;11.83;;
22955;SDS011;40888;48.148;11.526;2023-04-08T03:31:36;13.93;;;12.60;;
22955;SDS011;40888;48.148;11.526;2023-04-08T03:34:02;14.90;;;13.40;;
22955;SDS011;40888;48.148;11.526;2023-04-08T03:36:28;14.60;;;13.20;;
22955;SDS011;40888;48.148;11.526;2023-04-08T03:38:53;14.53;;;13.13;;
22955;SDS011;40888;48.148;11.526;2023-04-08T03:41:19;15.63;;;14.03;;
22955;SDS011;40888;48.148;11.526;2023-04-08T03:43:45;15.87;;;13.30;;
22955;SDS011;40888;48.148;11.526;2023-04-08T03:46:11;14.87;;;13.47;;
22955;SDS011;40888;48.148;11.526;2023-04-08T03:48:36;15.17;;;13.67;;
22955;SDS011;40888;48.148;11.526;2023-04-08T03:51:02;15.53;;;13.93;;
22955;SDS011;40888;48.148;11.526;2023-04-08T03:53:28;14.70;;;13.17;;
22955;SDS011;40888;48.148;11.526;2023-04-08T03:55:55;14.50;;;13.00;;
22955;SDS011;40888;48.148;11.526;2023-04-08T03:58:21;14.27;;;12.93;;
22955;SDS011;40888;48.148;11.526;2023-04-08T04:00:47;15.03;;;13.50;;
22955;SDS011;40888;48.148;11.526;2023-04-08T04:03:12;15.37;;;13.80;;
22955;SDS011;40888;48.148;11.526;2023-04-08T04:05:38;16.73;;;14.67;;
22955;SDS011;40888;48.148;11.526;2023-04-08T04:08:04;16.57;;;14.53;;
22955;SDS011;40888;48.148;11.526;2023-04-08T04:10:31;16.43;;;14.63;;
22955;SDS011;40888;48.148;11.526;2023-04-08T04:12:56;16.43;;;14.80;;
22955;SDS011;40888;48.148;11.526;2023-04-08T04:15:22;16.40;;;14.80;;
22955;SDS011;40888;48.148;11.526;2023-04-08T04:17:48;16.40;;;14.90;;
22955;SDS011;40888;48.148;11.526;2023-04-08T04:20:15;16.77;;;15.13;;
22955;SDS011;40888;48.148;11.526;2023-04-08T04:22:41;16.23;;;14.53;;
22955;SDS011;40888;48.148;11.526;2023-04-08T04:25:07;17.50;;;15.70;;
22955;SDS011;40888;48.148;11.526;2023-04-08T04:27:34;17.67;;;15.93;;
22955;SDS011;40888;48.148;11.526;2023-04-08T04:30:01;16.97;;;15.17;;
22955;SDS011;40888;48.148;11.526;2023-04-08T04:32:27;17.17;;;14.43;;
22955;SDS011;40888;48.148;11.526;2023-04-08T04:34:53;16.13;;;14.37;;
22955;SDS011;40888;48.148;11.526;2023-04-08T04:37:19;16.47;;;14.73;;
22955;SDS011;40888;48.148;11.526;2023-04-08T04:39:44;17.67;;;15.37;;
22955;SDS011;40888;48.148;11.526;2023-04-08T04:42:10;17.70;;;15.90;;
22955;SDS011;40888;48.148;11.526;2023-04-08T04:44:36;17.17;;;15.50;;
22955;SDS011;40888;48.148;11.526;2023-04-08T04:47:02;17.17;;;15.33;;
22955;SDS011;40888;48.148;11.526;2023-04-08T04:49:28;19.97;;;17.63;;
22955;SDS011;40888;48.148;11.526;2023-04-08T04:51:54;19.43;;;17.43;;
22955;SDS011;40888;48.148;11.526;2023-04-08T04:54:19;18.37;;;15.97;;
22955;SDS011;40888;48.148;11.526;2023-04-08T04:56:45;19.10;;;16.97;;
22955;SDS011;40888;48.148;11.526;2023-04-08T04:59:11;17.67;;;15.40;;
22955;SDS011;40888;48.148;11.526;2023-04-08T05:01:37;18.50;;;16.60;;
22955;SDS011;40888;48.148;11.526;2023-04-08T05:04:05;18.87;;;15.70;;
22955;SDS011;40888;48.148;11.526;2023-04-08T05:06:31;17.73;;;15.00;;
22955;SDS011;40888;48.148;11.526;2023-04-08T05:08:57;20.07;;;17.97;;
22955;SDS011;40888;48.148;11.526;2023-04-08T05:11:23;19.53;;;16.10;;
22955;SDS011;40888;48.148;11.526;2023-04-08T05:13:49;17.87;;;15.67;;
22955;SDS011;40888;48.148;11.526;2023-04-08T05:16:15;20.03;;;16.53;;
22955;SDS011;40888;48.148;11.526;2023-04-08T05:18:41;19.57;;;15.13;;
22955;SDS011;40888;48.148;11.526;2023-04-08T05:21:06;23.47;;;16.80;;
22955;SDS011;40888;48.148;11.526;2023-04-08T05:23:39;20.43;;;16.40;;
22955;SDS011;40888;48.148;11.526;2023-04-08T05:26:07;23.50;;;18.17;;
22955;SDS011;40888;48.148;11.526;2023-04-08T05:28:33;23.37;;;19.67;;
22955;SDS011;40888;48.148;11.526;2023-04-08T05:30:59;22.67;;;16.40;;
22955;SDS011;40888;48.148;11.526;2023-04-08T05:33:25;19.47;;;14.27;;
22955;SDS011;40888;48.148;11.526;2023-04-08T05:35:51;22.50;;;15.13;;
22955;SDS011;40888;48.148;11.526;2023-04-08T05:38:17;21.90;;;16.40;;
22955;SDS011;40888;48.148;11.526;2023-04-08T05:40:43;23.77;;;16.10;;
22955;SDS011;40888;48.148;11.526;2023-04-08T05:43:08;25.43;;;15.43;;
22955;SDS011;40888;48.148;11.526;2023-04-08T05:45:34;20.90;;;14.67;;
22955;SDS011;40888;48.148;11.526;2023-04-08T05:48:00;24.03;;;14.43;;
22955;SDS011;40888;48.148;11.526;2023-04-08T05:50:26;23.07;;;14.93;;
22955;SDS011;40888;48.148;11.526;2023-04-08T05:52:51;19.77;;;13.83;;
22955;SDS011;40888;48.148;11.526;2023-04-08T05:55:17;21.00;;;14.43;;
22955;SDS011;40888;48.148;11.526;2023-04-08T05:57:43;21.03;;;14.40;;
22955;SDS011;40888;48.148;11.526;2023-04-08T06:00:09;20.63;;;14.90;;
22955;SDS011;40888;48.148;11.526;2023-04-08T06:02:35;19.50;;;14.67;;
22955;SDS011;40888;48.148;11.526;2023-04-08T06:05:02;20.57;;;14.57;;
22955;SDS011;40888;48.148;11.526;2023-04-08T06:07:28;21.53;;;14.30;;
22955;SDS011;40888;48.148;11.526;2023-04-08T06:09:55;19.37;;;14.33;;
22955;SDS011;40888;48.148;11.526;2023-04-08T06:12:20;21.30;;;13.80;;
22955;SDS011;40888;48.148;11.526;2023-04-08T06:14:46;18.97;;;14.37;;
22955;SDS011;40888;48.148;11.526;2023-04-08T06:17:12;19.67;;;14.30;;
22955;SDS011;40888;48.148;11.526;2023-04-08T06:19:37;19.47;;;13.80;;
22955;SDS011;40888;48.148;11.526;2023-04-08T06:22:03;20.30;;;14.37;;
22955;SDS011;40888;48.148;11.526;2023-04-08T06:24:29;20.17;;;14.93;;
22955;SDS011;40888;48.148;11.526;2023-04-08T06:26:55;20.73;;;14.63;;
22955;SDS011;40888;48.148;11.526;2023-04-08T06:29:21;19.77;;;14.70;;
22955;SDS011;40888;48.148;11.526;2023-04-08T06:31:47;20.00;;;13.47;;
22955;SDS011;40888;48.148;11.526;2023-04-08T06:34:13;21.90;;;14.37;;
22955;SDS011;40888;48.148;11.526;2023-04-08T06:36:39;22.70;;;14.80;;
22955;SDS011;40888;48.148;11.526;2023-04-08T06:39:05;20.87;;;14.70;;
22955;SDS011;40888;48.148;11.526;2023-04-08T06:41:30;19.17;;;14.17;;
22955;SDS011;40888;48.148;11.526;2023-04-08T06:43:56;20.77;;;14.43;;
22955;SDS011;40888;48.148;11.526;2023-04-08T06:46:22;19.30;;;14.30;;
22955;SDS011;40888;48.148;11.526;2023-04-08T06:48:48;17.77;;;14.67;;
22955;SDS011;40888;48.148;11.526;2023-04-08T06:51:14;21.37;;;14.20;;
22955;SDS011;40888;48.148;11.526;2023-04-08T06:53:39;24.80;;;16.40;;
22955;SDS011;40888;48.148;11.526;2023-04-08T06:56:05;20.57;;;15.23;;
22955;SDS011;40888;48.148;11.526;2023-04-08T06:58:31;21.57;;;15.20;;
22955;SDS011;40888;48.148;11.526;2023-04-08T07:00:57;22.97;;;14.87;;
22955;SDS011;40888;48.148;11.526;2023-04-08T07:03:25;22.00;;;15.33;;
22955;SDS011;40888;48.148;11.526;2023-04-08T07:05:51;19.57;;;13.90;;
22955;SDS011;40888;48.148;11.526;2023-04-08T07:08:17;20.90;;;14.80;;
22955;SDS011;40888;48.148;11.526;2023-04-08T07:10:43;18.40;;;13.70;;
22955;SDS011;40888;48.148;11.526;2023-04-08T07:13:09;19.83;;;14.67;;
22955;SDS011;40888;48.148;11.526;2023-04-08T07:15:35;20.37;;;15.20;;
22955;SDS011;40888;48.148;11.526;2023-04-08T07:18:01;19.97;;;14.37;;
22955;SDS011;40888;48.148;11.526;2023-04-08T07:20:28;19.30;;;15.03;;
22955;SDS011;40888;48.148;11.526;2023-04-08T07:22:54;21.87;;;15.83;;
22955;SDS011;40888;48.148;11.526;2023-04-08T07:25:20;20.90;;;16.03;;
22955;SDS011;40888;48.148;11.526;2023-04-08T07:27:46;19.70;;;14.80;;
22955;SDS011;40888;48.148;11.526;2023-04-08T07:30:12;21.43;;;15.70;;
22955;SDS011;40888;48.148;11.526;2023-04-08T07:32:37;23.57;;;15.23;;
22955;SDS011;40888;48.148;11.526;2023-04-08T07:35:03;19.87;;;13.87;;
22955;SDS011;40888;48.148;11.526;2023-04-08T07:37:29;21.40;;;14.73;;
22955;SDS011;40888;48.148;11.526;2023-04-08T07:39:55;18.73;;;13.97;;
22955;SDS011;40888;48.148;11.526;2023-04-08T07:42:21;20.60;;;15.60;;
22955;SDS011;40888;48.148;11.526;2023-04-08T07:44:47;21.20;;;14.70;;
22955;SDS011;40888;48.148;11.526;2023-04-08T07:47:12;17.63;;;12.97;;
22955;SDS011;40888;48.148;11.526;2023-04-08T07:49:38;17.93;;;12.67;;
22955;SDS011;40888;48.148;11.526;2023-04-08T07:52:04;17.30;;;11.47;;
22955;SDS011;40888;48.148;11.526;2023-04-08T07:54:31;14.70;;;11.03;;
22955;SDS011;40888;48.148;11.526;2023-04-08T07:56:58;15.30;;;11.50;;
22955;SDS011;40888;48.148;11.526;2023-04-08T07:59:25;13.30;;;9.87;;
22955;SDS011;40888;48.148;11.526;2023-04-08T08:01:52;14.13;;;10.17;;
22955;SDS011;40888;48.148;11.526;2023-04-08T08:04:18;14.27;;;9.70;;
22955;SDS011;40888;48.148;11.526;2023-04-08T08:06:43;12.27;;;9.73;;
22955;SDS011;40888;48.148;11.526;2023-04-08T08:09:09;11.57;;;9.60;;
22955;SDS011;40888;48.148;11.526;2023-04-08T08:11:35;13.17;;;8.83;;
22955;SDS011;40888;48.148;11.526;2023-04-08T08:14:01;12.90;;;9.53;;
22955;SDS011;40888;48.148;11.526;2023-04-08T08:16:27;12.43;;;9.90;;
22955;SDS011;40888;48.148;11.526;2023-04-08T08:18:53;13.00;;;10.27;;
22955;SDS011;40888;48.148;11.526;2023-04-08T08:21:19;14.43;;;10.20;;
22955;SDS011;40888;48.148;11.526;2023-04-08T08:23:45;12.43;;;9.73;;
22955;SDS011;40888;48.148;11.526;2023-04-08T08:26:11;13.93;;;10.33;;
22955;SDS011;40888;48.148;11.526;2023-04-08T08:28:37;12.27;;;10.27;;
22955;SDS011;40888;48.148;11.526;2023-04-08T08:31:03;13.33;;;10.80;;
22955;SDS011;40888;48.148;11.526;2023-04-08T08:33:30;16.93;;;11.40;;
22955;SDS011;40888;48.148;11.526;2023-04-08T08:35:56;15.43;;;10.80;;
22955;SDS011;40888;48.148;11.526;2023-04-08T08:38:22;14.80;;;11.20;;
22955;SDS011;40888;48.148;11.526;2023-04-08T08:40:52;11.83;;;9.60;;
22955;SDS011;40888;48.148;11.526;2023-04-08T08:43:20;13.77;;;10.00;;
22955;SDS011;40888;48.148;11.526;2023-04-08T08:45:46;14.97;;;10.90;;
22955;SDS011;40888;48.148;11.526;2023-04-08T08:48:12;15.70;;;10.83;;
22955;SDS011;40888;48.148;11.526;2023-04-08T08:50:38;17.60;;;10.80;;
22955;SDS011;40888;48.148;11.526;2023-04-08T08:53:04;15.50;;;10.93;;
22955;SDS011;40888;48.148;11.526;2023-04-08T08:55:30;14.20;;;10.60;;
22955;SDS011;40888;48.148;11.526;2023-04-08T08:58:00;14.40;;;11.50;;
22955;SDS011;40888;48.148;11.526;2023-04-08T09:00:36;16.67;;;12.20;;
22955;SDS011;40888;48.148;11.526;2023-04-08T09:08:31;15.43;;;12.10;;
22955;SDS011;40888;48.148;11.526;2023-04-08T09:11:15;14.57;;;10.53;;
22955;SDS011;40888;48.148;11.526;2023-04-08T09:13:42;14.17;;;10.73;;
22955;SDS011;40888;48.148;11.526;2023-04-08T09:16:10;13.13;;;9.70;;
22955;SDS011;40888;48.148;11.526;2023-04-08T09:18:39;12.97;;;9.67;;
22955;SDS011;40888;48.148;11.526;2023-04-08T09:21:08;14.93;;;11.00;;
22955;SDS011;40888;48.148;11.526;2023-04-08T09:26:07;14.43;;;10.80;;
22955;SDS011;40888;48.148;11.526;2023-04-08T09:28:34;14.00;;;10.40;;
22955;SDS011;40888;48.148;11.526;2023-04-08T09:31:05;12.10;;;10.03;;
22955;SDS011;40888;48.148;11.526;2023-04-08T09:33:46;12.33;;;10.37;;
22955;SDS011;40888;48.148;11.526;2023-04-08T09:36:17;12.87;;;9.83;;
22955;SDS011;40888;48.148;11.526;2023-04-08T09:38:43;12.20;;;10.57;;
22955;SDS011;40888;48.148;11.526;2023-04-08T09:41:11;12.47;;;10.03;;
22955;SDS011;40888;48.148;11.526;2023-04-08T09:43:43;13.40;;;10.40;;
22955;SDS011;40888;48.148;11.526;2023-04-08T09:46:16;13.07;;;11.40;;
22955;SDS011;40888;48.148;11.526;2023-04-08T09:48:55;15.30;;;13.73;;
22955;SDS011;40888;48.148;11.526;2023-04-08T09:51:32;15.73;;;11.67;;
22955;SDS011;40888;48.148;11.526;2023-04-08T09:54:11;13.83;;;11.97;;
22955;SDS011;40888;48.148;11.526;2023-04-08T09:56:40;13.63;;;11.87;;
22955;SDS011;40888;48.148;11.526;2023-04-08T09:59:16;16.00;;;13.23;;
22955;SDS011;40888;48.148;11.526;2023-04-08T10:01:44;14.87;;;13.10;;
22955;SDS011;40888;48.148;11.526;2023-04-08T10:04:14;15.40;;;13.00;;
22955;SDS011;40888;48.148;11.526;2023-04-08T10:06:43;16.37;;;14.67;;
22955;SDS011;40888;48.148;11.526;2023-04-08T10:09:09;16.10;;;14.50;;
22955;SDS011;40888;48.148;11.526;2023-04-08T10:11:35;16.83;;;15.13;;
22955;SDS011;40888;48.148;11.526;2023-04-08T10:14:01;16.67;;;14.97;;
22955;SDS011;40888;48.148;11.526;2023-04-08T10:16:27;18.30;;;16.27;;
22955;SDS011;40888;48.148;11.526;2023-04-08T10:18:54;17.57;;;15.77;;
22955;SDS011;40888;48.148;11.526;2023-04-08T10:24:19;16.90;;;15.13;;
22955;SDS011;40888;48.148;11.526;2023-04-08T10:26:49;17.30;;;15.60;;
22955;SDS011;40888;48.148;11.526;2023-04-08T10:31:44;17.53;;;15.83;;
22955;SDS011;40888;48.148;11.526;2023-04-08T10:34:20;16.23;;;14.53;;
22955;SDS011;40888;48.148;11.526;2023-04-08T10:36:48;18.13;;;16.33;;
22955;SDS011;40888;48.148;11.526;2023-04-08T10:39:15;17.23;;;15.40;;
22955;SDS011;40888;48.148;11.526;2023-04-08T10:41:41;17.90;;;16.00;;
22955;SDS011;40888;48.148;11.526;2023-04-08T10:47:08;17.33;;;15.57;;
22955;SDS011;40888;48.148;11.526;2023-04-08T10:49:35;18.07;;;16.27;;
22955;SDS011;40888;48.148;11.526;2023-04-08T10:52:05;18.00;;;16.10;;
22955;SDS011;40888;48.148;11.526;2023-04-08T10:54:32;18.47;;;16.57;;
22955;SDS011;40888;48.148;11.526;2023-04-08T10:56:57;18.83;;;16.07;;
22955;SDS011;40888;48.148;11.526;2023-04-08T10:59:28;17.50;;;14.50;;
22955;SDS011;40888;48.148;11.526;2023-04-08T11:01:56;19.63;;;17.70;;
22955;SDS011;40888;48.148;11.526;2023-04-08T11:04:22;17.53;;;15.63;;
22955;SDS011;40888;48.148;11.526;2023-04-08T11:06:49;17.23;;;15.40;;
22955;SDS011;40888;48.148;11.526;2023-04-08T11:09:15;16.07;;;13.77;;
22955;SDS011;40888;48.148;11.526;2023-04-08T11:11:41;18.47;;;13.73;;
22955;SDS011;40888;48.148;11.526;2023-04-08T11:14:08;15.80;;;13.40;;
22955;SDS011;40888;48.148;11.526;2023-04-08T11:16:35;17.40;;;13.70;;
22955;SDS011;40888;48.148;11.526;2023-04-08T11:19:03;17.27;;;13.43;;
22955;SDS011;40888;48.148;11.526;2023-04-08T11:21:30;16.97;;;13.33;;
22955;SDS011;40888;48.148;11.526;2023-04-08T11:23:59;17.23;;;13.43;;
22955;SDS011;40888;48.148;11.526;2023-04-08T11:26:25;17.60;;;13.37;;
22955;SDS011;40888;48.148;11.526;2023-04-08T11:28:51;16.53;;;12.77;;
22955;SDS011;40888;48.148;11.526;2023-04-08T11:31:18;17.73;;;13.77;;
22955;SDS011;40888;48.148;11.526;2023-04-08T11:33:48;19.23;;;13.90;;
22955;SDS011;40888;48.148;11.526;2023-04-08T11:36:18;17.60;;;14.33;;
22955;SDS011;40888;48.148;11.526;2023-04-08T11:38:45;17.40;;;14.10;;
22955;SDS011;40888;48.148;11.526;2023-04-08T11:41:12;15.70;;;12.60;;
22955;SDS011;40888;48.148;11.526;2023-04-08T11:43:38;17.63;;;13.07;;
22955;SDS011;40888;48.148;11.526;2023-04-08T11:46:11;15.93;;;12.50;;
22955;SDS011;40888;48.148;11.526;2023-04-08T11:48:37;17.60;;;12.37;;
22955;SDS011;40888;48.148;11.526;2023-04-08T11:51:07;16.20;;;11.80;;
22955;SDS011;40888;48.148;11.526;2023-04-08T11:53:33;14.93;;;12.90;;
22955;SDS011;40888;48.148;11.526;2023-04-08T11:56:14;15.53;;;12.47;;
22955;SDS011;40888;48.148;11.526;2023-04-08T11:58:41;18.37;;;12.93;;
22955;SDS011;40888;48.148;11.526;2023-04-08T12:01:07;15.50;;;13.00;;
22955;SDS011;40888;48.148;11.526;2023-04-08T12:03:32;20.67;;;13.97;;
22955;SDS011;40888;48.148;11.526;2023-04-08T12:05:58;19.70;;;13.10;;
22955;SDS011;40888;48.148;11.526;2023-04-08T12:08:24;17.97;;;13.17;;
22955;SDS011;40888;48.148;11.526;2023-04-08T12:10:50;17.53;;;13.77;;
22955;SDS011;40888;48.148;11.526;2023-04-08T12:13:17;18.03;;;13.13;;
22955;SDS011;40888;48.148;11.526;2023-04-08T12:15:43;14.53;;;11.83;;
22955;SDS011;40888;48.148;11.526;2023-04-08T12:18:09;16.47;;;11.83;;
22955;SDS011;40888;48.148;11.526;2023-04-08T12:20:35;16.13;;;13.00;;
22955;SDS011;40888;48.148;11.526;2023-04-08T12:23:00;17.50;;;12.93;;
22955;SDS011;40888;48.148;11.526;2023-04-08T12:25:26;15.33;;;12.40;;
22955;SDS011;40888;48.148;11.526;2023-04-08T12:27:52;15.07;;;12.07;;
22955;SDS011;40888;48.148;11.526;2023-04-08T12:30:17;17.53;;;12.07;;
22955;SDS011;40888;48.148;11.526;2023-04-08T12:32:43;15.13;;;12.00;;
22955;SDS011;40888;48.148;11.526;2023-04-08T12:35:10;13.07;;;11.53;;
22955;SDS011;40888;48.148;11.526;2023-04-08T12:37:36;14.20;;;10.50;;
22955;SDS011;40888;48.148;11.526;2023-04-08T12:40:01;15.77;;;11.47;;
22955;SDS011;40888;48.148;11.526;2023-04-08T12:42:27;12.93;;;11.00;;
22955;SDS011;40888;48.148;11.526;2023-04-08T12:44:53;14.30;;;10.50;;
22955;SDS011;40888;48.148;11.526;2023-04-08T12:47:19;13.20;;;10.97;;
22955;SDS011;40888;48.148;11.526;2023-04-08T12:49:45;13.83;;;11.03;;
22955;SDS011;40888;48.148;11.526;2023-04-08T12:52:10;12.90;;;10.83;;
22955;SDS011;40888;48.148;11.526;2023-04-08T12:54:36;11.50;;;9.90;;
22955;SDS011;40888;48.148;11.526;2023-04-08T12:57:02;13.27;;;10.47;;
22955;SDS011;40888;48.148;11.526;2023-04-08T12:59:28;11.30;;;9.63;;
22955;SDS011;40888;48.148;11.526;2023-04-08T13:01:56;10.20;;;9.13;;
22955;SDS011;40888;48.148;11.526;2023-04-08T13:04:21;12.37;;;10.07;;
22955;SDS011;40888;48.148;11.526;2023-04-08T13:06:47;10.80;;;9.10;;
22955;SDS011;40888;48.148;11.526;2023-04-08T13:09:13;11.07;;;9.07;;
22955;SDS011;40888;48.148;11.526;2023-04-08T13:11:39;12.70;;;9.77;;
22955;SDS011;40888;48.148;11.526;2023-04-08T13:14:05;13.77;;;9.67;;
22955;SDS011;40888;48.148;11.526;2023-04-08T13:16:30;12.10;;;9.63;;
22955;SDS011;40888;48.148;11.526;2023-04-08T13:18:56;13.03;;;9.33;;
22955;SDS011;40888;48.148;11.526;2023-04-08T13:21:22;12.63;;;9.90;;
22955;SDS011;40888;48.148;11.526;2023-04-08T13:23:48;13.40;;;10.07;;
22955;SDS011;40888;48.148;11.526;2023-04-08T13:26:13;12.20;;;9.03;;
22955;SDS011;40888;48.148;11.526;2023-04-08T13:28:39;14.70;;;9.53;;
22955;SDS011;40888;48.148;11.526;2023-04-08T13:31:05;11.10;;;9.17;;
22955;SDS011;40888;48.148;11.526;2023-04-08T13:33:31;11.00;;;9.13;;
22955;SDS011;40888;48.148;11.526;2023-04-08T13:35:57;11.73;;;8.30;;
22955;SDS011;40888;48.148;11.526;2023-04-08T13:38:22;11.33;;;9.27;;
22955;SDS011;40888;48.148;11.526;2023-04-08T13:40:48;11.93;;;8.30;;
22955;SDS011;40888;48.148;11.526;2023-04-08T13:43:14;11.37;;;8.90;;
22955;SDS011;40888;48.148;11.526;2023-04-08T13:45:40;10.87;;;9.77;;
22955;SDS011;40888;48.148;11.526;2023-04-08T13:48:05;11.37;;;10.23;;
22955;SDS011;40888;48.148;11.526;2023-04-08T13:50:31;12.47;;;11.20;;
22955;SDS011;40888;48.148;11.526;2023-04-08T13:52:57;12.60;;;11.40;;
22955;SDS011;40888;48.148;11.526;2023-04-08T13:55:23;14.10;;;10.37;;
22955;SDS011;40888;48.148;11.526;2023-04-08T13:57:48;11.70;;;10.50;;
22955;SDS011;40888;48.148;11.526;2023-04-08T14:00:14;12.33;;;11.13;;
22955;SDS011;40888;48.148;11.526;2023-04-08T14:02:40;12.27;;;11.07;;
22955;SDS011;40888;48.148;11.526;2023-04-08T14:05:06;12.50;;;10.53;;
22955;SDS011;40888;48.148;11.526;2023-04-08T14:07:32;12.67;;;11.37;;
22955;SDS011;40888;48.148;11.526;2023-04-08T14:09:58;11.80;;;10.60;;
22955;SDS011;40888;48.148;11.526;2023-04-08T14:12:23;11.90;;;10.80;;
22955;SDS011;40888;48.148;11.526;2023-04-08T14:14:49;11.67;;;10.57;;
22955;SDS011;40888;48.148;11.526;2023-04-08T14:17:15;12.97;;;11.77;;
22955;SDS011;40888;48.148;11.526;2023-04-08T14:19:41;12.87;;;11.67;;
22955;SDS011;40888;48.148;11.526;2023-04-08T14:22:06;11.77;;;10.67;;
22955;SDS011;40888;48.148;11.526;2023-04-08T14:24:32;12.00;;;10.90;;
22955;SDS011;40888;48.148;11.526;2023-04-08T14:26:58;12.13;;;11.10;;
22955;SDS011;40888;48.148;11.526;2023-04-08T14:29:24;12.33;;;11.13;;
22955;SDS011;40888;48.148;11.526;2023-04-08T14:31:50;12.20;;;11.13;;
22955;SDS011;40888;48.148;11.526;2023-04-08T14:34:15;12.57;;;11.47;;